Time;durP1;ratioP1;P1;durP2;ratioP2;P2;SDS_P1;SDS_P2;PMS_P1;PMS_P2;Temp;Humidity;BMP_temperature;BMP_pressure;BME280_temperature;BME280_humidity;BME280_pressure;Samples;Min_cycle;Max_cycle;Signal;HPM_P1;HPM_P2
2023/08/29 00:02:08;;;;;;;6.15;3.80;;;;;;;11.66;64.84;99700.56;4970380;28;20124;-69
2023/08/29 00:04:37;;;;;;;5.22;3.55;;;;;;;11.69;64.67;99695.31;4968831;28;20048;-70
2023/08/29 00:07:04;;;;;;;7.63;3.50;;;;;;;11.63;64.49;99703.22;4952689;28;20073;-68
2023/08/29 00:09:29;;;;;;;7.60;3.63;;;;;;;11.49;64.89;99690.38;4970837;28;20046;-67
2023/08/29 00:11:56;;;;;;;4.30;3.30;;;;;;;11.38;64.46;99692.28;4969358;28;20155;-68
2023/08/29 00:14:22;;;;;;;5.28;3.00;;;;;;;11.15;64.84;99663.06;4970467;28;20092;-68
2023/08/29 00:16:48;;;;;;;7.25;3.00;;;;;;;11.18;64.68;99672.59;4951561;28;20031;-68
2023/08/29 00:19:14;;;;;;;4.65;3.00;;;;;;;11.29;64.59;99714.97;4952980;28;20560;-69
2023/08/29 00:21:45;;;;;;;11.63;3.35;;;;;;;11.21;64.83;99706.41;4969234;28;20042;-69
2023/08/29 00:24:11;;;;;;;6.97;3.28;;;;;;;11.28;65.17;99718.44;4971486;28;20541;-70
2023/08/29 00:26:37;;;;;;;5.65;3.70;;;;;;;11.30;64.97;99727.09;4957203;28;20117;-69
2023/08/29 00:29:03;;;;;;;8.20;3.58;;;;;;;11.30;64.95;99728.88;4972965;28;20081;-67
2023/08/29 00:31:29;;;;;;;3.88;2.85;;;;;;;11.32;65.14;99726.22;4972985;28;20075;-70
2023/08/29 00:33:55;;;;;;;5.13;3.15;;;;;;;11.35;65.32;99732.28;4973003;28;20503;-68
2023/08/29 00:36:21;;;;;;;4.47;3.00;;;;;;;11.39;65.10;99733.94;4988455;28;20589;-67
2023/08/29 00:38:47;;;;;;;5.45;3.20;;;;;;;11.36;64.72;99731.41;4972327;28;20806;-68
2023/08/29 00:41:14;;;;;;;4.80;3.08;;;;;;;11.33;64.83;99739.25;4987873;28;21598;-68
2023/08/29 00:43:40;;;;;;;6.28;2.97;;;;;;;11.28;64.66;99730.63;4972337;28;20034;-68
2023/08/29 00:46:06;;;;;;;7.30;3.55;;;;;;;11.26;65.01;99715.00;4988633;28;20045;-69
2023/08/29 00:48:33;;;;;;;7.95;3.50;;;;;;;11.37;64.99;99727.88;4981878;28;20038;-69
2023/08/29 00:51:01;;;;;;;9.18;3.65;;;;;;;11.29;65.04;99721.94;4972023;28;20042;-68
2023/08/29 00:53:29;;;;;;;5.55;3.42;;;;;;;11.10;64.82;99710.88;4972079;28;20529;-67
2023/08/29 00:55:57;;;;;;;5.55;3.22;;;;;;;11.17;64.11;99727.28;4955373;28;20047;-68
2023/08/29 00:58:23;;;;;;;5.13;2.83;;;;;;;11.03;65.36;99709.25;4987071;28;20373;-68
2023/08/29 01:00:50;;;;;;;5.53;3.22;;;;;;;11.04;64.47;99717.03;4939250;28;20088;-67
2023/08/29 01:03:16;;;;;;;5.85;3.40;;;;;;;11.00;65.80;99716.22;4973171;28;20120;-68
2023/08/29 01:05:42;;;;;;;8.85;3.58;;;;;;;10.94;65.49;99710.19;4974132;28;20355;-68
2023/08/29 01:08:08;;;;;;;10.70;3.80;;;;;;;10.79;65.86;99686.06;4971509;28;20689;-67
2023/08/29 01:11:00;;;;;;;7.35;3.72;;;;;;;10.85;65.84;99700.75;4988182;28;21245;-66
2023/08/29 01:13:47;;;;;;;6.65;4.10;;;;;;;10.78;65.82;99689.56;4987273;28;20145;-67
2023/08/29 01:16:17;;;;;;;7.13;4.18;;;;;;;10.83;66.11;99695.56;4955478;28;20180;-68
2023/08/29 01:18:46;;;;;;;7.18;3.75;;;;;;;10.87;66.55;99691.19;4960632;28;20050;-68
2023/08/29 01:21:35;;;;;;;7.80;4.45;;;;;;;10.76;66.11;99682.66;4939727;28;20046;-67
2023/08/29 01:24:07;;;;;;;6.03;3.75;;;;;;;10.86;66.06;99702.47;4951522;28;20142;-69
2023/08/29 01:26:34;;;;;;;5.25;3.50;;;;;;;10.68;65.86;99693.16;4971726;28;20038;-68
2023/08/29 01:29:01;;;;;;;8.23;3.40;;;;;;;10.63;66.51;99701.00;4966755;28;20069;-67
2023/08/29 01:31:29;;;;;;;4.60;2.90;;;;;;;10.70;66.25;99726.06;4984507;28;20137;-69
2023/08/29 01:33:58;;;;;;;6.43;3.45;;;;;;;10.75;66.53;99725.19;4954723;28;20125;-67
2023/08/29 01:36:28;;;;;;;6.15;3.55;;;;;;;10.75;66.80;99720.81;4969295;28;20083;-67
2023/08/29 01:38:55;;;;;;;4.93;3.40;;;;;;;10.84;66.52;99728.53;4955373;28;20054;-68
2023/08/29 01:41:21;;;;;;;6.15;3.28;;;;;;;10.99;66.93;99735.31;4971726;28;20396;-67
2023/08/29 01:43:49;;;;;;;6.38;3.40;;;;;;;11.09;66.41;99743.00;4971014;28;20051;-69
2023/08/29 01:46:15;;;;;;;6.88;2.95;;;;;;;11.13;66.40;99740.38;4970201;28;20038;-68
2023/08/29 01:48:41;;;;;;;6.95;3.20;;;;;;;11.07;66.20;99730.00;4972004;28;20084;-68
2023/08/29 01:51:07;;;;;;;5.55;3.03;;;;;;;11.12;66.20;99725.63;4971498;28;20077;-69
2023/08/29 01:53:33;;;;;;;5.80;2.70;;;;;;;11.09;65.97;99737.78;4986670;28;20046;-69
2023/08/29 01:56:00;;;;;;;6.28;3.08;;;;;;;10.98;66.09;99733.59;4987109;28;20050;-68
2023/08/29 01:58:27;;;;;;;6.43;3.25;;;;;;;10.90;66.41;99714.59;4970623;28;20071;-67
2023/08/29 02:00:54;;;;;;;7.22;3.63;;;;;;;10.93;66.54;99732.78;4971999;28;20042;-68
2023/08/29 02:03:23;;;;;;;8.40;4.53;;;;;;;10.90;66.19;99729.34;4971845;28;20054;-68
2023/08/29 02:05:49;;;;;;;7.63;3.75;;;;;;;10.92;67.11;99714.59;4987247;28;20038;-68
2023/08/29 02:08:15;;;;;;;6.05;3.75;;;;;;;10.96;66.72;99703.22;4954728;28;20127;-70
2023/08/29 02:10:41;;;;;;;7.50;3.78;;;;;;;11.05;66.45;99733.50;4960671;28;20081;-68
2023/08/29 02:13:09;;;;;;;10.13;5.00;;;;;;;11.01;66.72;99740.50;4983413;28;20410;-68
2023/08/29 02:15:55;;;;;;;8.23;3.80;;;;;;;10.97;66.80;99737.06;4967378;28;20039;-69
2023/08/29 02:18:21;;;;;;;8.55;4.10;;;;;;;11.06;66.92;99730.00;4970113;28;20042;-69
2023/08/29 02:20:47;;;;;;;7.03;3.35;;;;;;;11.11;66.03;99723.91;4958336;28;20743;-68
2023/08/29 02:23:13;;;;;;;9.45;3.92;;;;;;;11.12;66.44;99717.81;4970497;28;20038;-69
2023/08/29 02:25:39;;;;;;;8.75;3.70;;;;;;;11.10;66.12;99718.69;4970487;28;20041;-68
2023/08/29 02:28:05;;;;;;;9.68;4.07;;;;;;;11.31;66.96;99725.38;4972751;28;20054;-69
2023/08/29 02:30:36;;;;;;;8.05;3.92;;;;;;;11.44;66.38;99724.31;4969250;28;20068;-69
2023/08/29 02:33:02;;;;;;;8.75;3.72;;;;;;;11.59;66.37;99719.75;4986851;28;20805;-72
2023/08/29 02:35:28;;;;;;;9.63;4.15;;;;;;;11.66;66.03;99712.75;4970728;28;20042;-71
2023/08/29 02:37:55;;;;;;;7.55;4.07;;;;;;;11.67;65.95;99728.34;4969542;28;20053;-70
2023/08/29 02:40:23;;;;;;;5.85;4.00;;;;;;;11.65;66.11;99718.84;4989262;28;20046;-70
2023/08/29 02:42:50;;;;;;;10.43;4.28;;;;;;;11.85;66.14;99726.34;4971018;28;20045;-71
2023/08/29 02:45:18;;;;;;;5.93;3.58;;;;;;;11.95;65.51;99735.75;4972518;28;20035;-69
2023/08/29 02:47:44;;;;;;;8.18;3.42;;;;;;;11.96;65.27;99720.97;4956295;28;20398;-68
2023/08/29 02:50:10;;;;;;;7.78;3.50;;;;;;;12.06;65.54;99706.94;4960515;28;20571;-70
2023/08/29 02:52:36;;;;;;;6.15;3.35;;;;;;;12.22;65.22;99719.72;4971009;28;20038;-70
2023/08/29 02:55:04;;;;;;;6.53;3.15;;;;;;;12.21;65.10;99716.25;4938794;28;20390;-71
2023/08/29 02:57:30;;;;;;;10.55;3.67;;;;;;;12.15;65.08;99696.34;4985849;28;20065;-71
2023/08/29 02:59:57;;;;;;;7.05;3.17;;;;;;;12.14;64.76;99698.97;4970376;28;20133;-68
2023/08/29 03:02:24;;;;;;;7.18;3.30;;;;;;;12.14;64.71;99705.03;4970443;28;20049;-69
2023/08/29 03:04:49;;;;;;;7.28;3.40;;;;;;;12.44;64.34;99728.91;4954008;28;20043;-69
2023/08/29 03:07:15;;;;;;;6.57;3.13;;;;;;;12.52;64.25;99720.06;4987304;28;20043;-70
2023/08/29 03:09:41;;;;;;;5.55;3.22;;;;;;;12.69;64.20;99720.63;4969868;28;20042;-68
2023/08/29 03:12:07;;;;;;;6.78;3.15;;;;;;;12.51;63.15;99703.53;4984856;28;20130;-69
2023/08/29 03:14:33;;;;;;;4.47;3.10;;;;;;;12.54;63.94;99715.69;4969371;28;20068;-69
2023/08/29 03:16:59;;;;;;;8.35;3.28;;;;;;;12.81;64.00;99724.75;4971034;28;20046;-69
2023/08/29 03:19:25;;;;;;;7.47;3.38;;;;;;;12.73;62.91;99717.06;4957708;28;20105;-73
2023/08/29 03:21:54;;;;;;;6.32;3.22;;;;;;;12.97;63.60;99738.38;4992143;28;20060;-76
2023/08/29 03:24:19;;;;;;;5.85;3.17;;;;;;;13.15;63.26;99729.28;4944176;28;20046;-73
2023/08/29 03:26:45;;;;;;;5.80;3.72;;;;;;;13.26;62.85;99710.75;4958595;28;20644;-70
2023/08/29 03:29:11;;;;;;;6.68;3.30;;;;;;;13.34;62.54;99732.38;4972690;28;20197;-71
2023/08/29 03:31:38;;;;;;;6.07;3.33;;;;;;;13.32;62.09;99735.94;4991033;28;20076;-72
2023/08/29 03:34:04;;;;;;;4.13;2.72;;;;;;;13.47;62.14;99716.44;4944898;28;20050;-74
2023/08/29 03:36:30;;;;;;;4.57;2.88;;;;;;;13.66;61.78;99719.53;4974806;28;20046;-72
2023/08/29 03:38:57;;;;;;;6.07;3.03;;;;;;;13.73;61.73;99704.53;4961743;28;20488;-72
2023/08/29 03:41:25;;;;;;;5.30;3.10;;;;;;;13.93;61.11;99723.25;4976441;28;20556;-72
2023/08/29 03:43:51;;;;;;;4.70;2.60;;;;;;;13.91;60.71;99704.09;4957592;28;20034;-71
2023/08/29 03:46:17;;;;;;;5.93;3.05;;;;;;;14.07;60.50;99722.91;4971170;28;20039;-78
2023/08/29 03:48:43;;;;;;;6.00;3.10;;;;;;;14.18;59.85;99709.56;4971279;28;20053;-78
2023/08/29 03:51:10;;;;;;;4.55;2.85;;;;;;;14.34;60.08;99712.66;4948575;28;20043;-75
2023/08/29 03:53:37;;;;;;;7.53;3.10;;;;;;;14.52;59.42;99715.69;4971551;28;20049;-73
2023/08/29 03:56:06;;;;;;;9.18;3.13;;;;;;;14.43;58.91;99715.03;4953908;28;20062;-75
2023/08/29 03:58:32;;;;;;;7.35;3.10;;;;;;;14.46;59.16;99695.78;4960435;28;20320;-70
2023/08/29 04:00:59;;;;;;;5.40;2.85;;;;;;;14.64;59.12;99696.16;4971737;28;20046;-79
2023/08/29 04:03:25;;;;;;;6.35;3.10;;;;;;;14.85;58.82;99694.75;4986665;28;20054;-75
2023/08/29 04:05:52;;;;;;;6.10;3.20;;;;;;;14.84;58.17;99716.63;4965022;28;20065;-72
2023/08/29 04:08:18;;;;;;;6.63;2.83;;;;;;;14.73;57.50;99715.13;4968034;28;20034;-69
2023/08/29 04:10:44;;;;;;;9.50;2.88;;;;;;;14.52;57.82;99705.22;4968426;28;20527;-75
2023/08/29 04:13:10;;;;;;;5.30;2.90;;;;;;;14.28;57.63;99684.88;4970846;28;20481;-76
2023/08/29 04:15:37;;;;;;;6.90;2.90;;;;;;;14.35;58.14;99711.75;4950598;28;20180;-74
2023/08/29 04:18:05;;;;;;;6.03;2.97;;;;;;;14.42;57.95;99715.94;4951589;28;20054;-74
2023/08/29 04:20:31;;;;;;;5.18;2.97;;;;;;;14.41;57.75;99719.47;4962175;28;20132;-76
2023/08/29 04:22:58;;;;;;;5.10;3.15;;;;;;;14.49;58.27;99713.13;4984550;28;20456;-74
2023/08/29 04:25:28;;;;;;;7.03;2.75;;;;;;;14.72;58.03;99715.19;4984180;28;20050;-74
2023/08/29 04:27:54;;;;;;;5.35;3.28;;;;;;;14.78;57.72;99711.53;4969603;28;20039;-76
2023/08/29 04:30:20;;;;;;;7.22;3.15;;;;;;;15.00;57.85;99694.31;4983820;28;20045;-76
2023/08/29 04:32:52;;;;;;;6.00;2.97;;;;;;;15.31;56.92;99684.69;4963851;28;20046;-82
2023/08/29 04:35:19;;;;;;;6.53;2.70;;;;;;;15.48;56.74;99687.63;4972885;28;20119;-75
2023/08/29 04:37:46;;;;;;;8.95;2.90;;;;;;;15.69;57.04;99680.00;4973821;28;20043;-74
2023/08/29 04:40:12;;;;;;;4.75;3.35;;;;;;;15.99;56.77;99671.25;4971016;28;20204;-73
2023/08/29 04:42:40;;;;;;;6.45;2.85;;;;;;;16.33;55.06;99691.91;4952469;28;20073;-71
2023/08/29 04:45:07;;;;;;;5.65;3.13;;;;;;;16.60;55.22;99696.28;4972228;28;20064;-72
2023/08/29 04:47:34;;;;;;;8.48;3.22;;;;;;;16.87;54.75;99704.94;4988624;28;20046;-72
2023/08/29 04:50:02;;;;;;;6.70;2.53;;;;;;;16.64;53.81;99653.25;4967541;28;20740;-74
2023/08/29 04:52:30;;;;;;;4.75;3.03;;;;;;;16.92;53.46;99702.13;4980182;28;20093;-73
2023/08/29 04:54:56;;;;;;;4.65;2.65;;;;;;;16.65;53.23;99686.47;4971386;28;20085;-71
2023/08/29 04:57:22;;;;;;;4.60;2.55;;;;;;;16.51;53.10;99666.78;4974332;28;20185;-73
2023/08/29 04:59:49;;;;;;;7.10;2.78;;;;;;;16.54;53.33;99702.63;4969011;28;20097;-74
2023/08/29 05:02:16;;;;;;;6.35;2.50;;;;;;;16.82;53.18;99725.25;4972562;28;20563;-75
2023/08/29 05:04:43;;;;;;;3.80;2.58;;;;;;;17.17;53.27;99716.13;4955620;28;20045;-74
2023/08/29 05:07:09;;;;;;;4.47;2.42;;;;;;;17.88;52.08;99714.28;4972322;28;20060;-73
2023/08/29 05:09:36;;;;;;;4.47;2.58;;;;;;;18.01;51.72;99717.31;4972822;28;20089;-73
2023/08/29 05:12:02;;;;;;;4.97;2.80;;;;;;;18.16;50.56;99702.66;4964818;28;20104;-82
2023/08/29 05:14:29;;;;;;;4.20;2.58;;;;;;;18.91;49.13;99714.31;4994659;28;20082;-76
2023/08/29 05:16:54;;;;;;;4.80;2.70;;;;;;;20.16;48.08;99710.28;4994789;28;20049;-75
2023/08/29 05:19:21;;;;;;;4.80;2.40;;;;;;;21.16;46.83;99705.16;4962830;28;20096;-76
2023/08/29 05:21:47;;;;;;;7.28;2.90;;;;;;;22.65;45.09;99702.88;4960803;28;20057;-70
2023/08/29 05:24:13;;;;;;;5.68;2.40;;;;;;;23.88;41.96;99719.13;4969408;28;20046;-74
2023/08/29 05:26:39;;;;;;;4.20;2.38;;;;;;;23.59;40.72;99714.78;4980222;28;20480;-70
2023/08/29 05:29:05;;;;;;;4.70;2.40;;;;;;;22.86;39.82;99687.44;4960774;28;20473;-83
2023/08/29 05:31:31;;;;;;;4.40;2.72;;;;;;;22.75;39.77;99697.00;4953909;28;20047;-72
2023/08/29 05:33:57;;;;;;;4.63;2.20;;;;;;;22.55;40.57;99710.56;4982653;28;20061;-74
2023/08/29 05:36:23;;;;;;;5.20;2.50;;;;;;;21.77;40.13;99694.75;4978524;28;20374;-75
2023/08/29 05:38:49;;;;;;;4.57;2.40;;;;;;;21.40;40.72;99700.31;4963273;28;20038;-74
2023/08/29 05:41:15;;;;;;;4.78;2.58;;;;;;;20.58;41.31;99651.81;4971587;28;20093;-72
2023/08/29 05:43:41;;;;;;;3.17;2.30;;;;;;;20.43;41.20;99711.59;4962090;28;20038;-73
2023/08/29 05:46:07;;;;;;;3.40;2.70;;;;;;;20.30;42.53;99693.72;4975844;28;20043;-75
2023/08/29 05:48:34;;;;;;;5.07;2.50;;;;;;;20.29;42.87;99704.38;4943257;28;20097;-72
2023/08/29 05:51:00;;;;;;;3.65;2.40;;;;;;;19.85;42.49;99693.28;4949559;28;20146;-74
2023/08/29 05:53:26;;;;;;;5.88;2.88;;;;;;;19.67;43.30;99697.66;4958121;28;20043;-72
2023/08/29 05:55:52;;;;;;;7.60;2.90;;;;;;;19.68;43.38;99704.66;4974141;28;20050;-70
2023/08/29 05:58:19;;;;;;;3.05;2.33;;;;;;;19.55;43.06;99693.84;4972394;28;20034;-73
2023/08/29 06:00:45;;;;;;;4.75;2.47;;;;;;;19.38;43.79;99696.41;4969435;28;20640;-71
2023/08/29 06:03:11;;;;;;;6.68;2.35;;;;;;;19.21;43.93;99695.44;4962365;28;20099;-69
2023/08/29 06:05:41;;;;;;;4.60;2.38;;;;;;;18.94;44.34;99698.38;4977601;28;20045;-70
2023/08/29 06:08:08;;;;;;;3.60;2.30;;;;;;;18.86;44.65;99695.25;4991842;28;20468;-71
2023/08/29 06:10:34;;;;;;;4.60;2.38;;;;;;;18.63;45.04;99665.50;4970830;28;20126;-73
2023/08/29 06:13:00;;;;;;;3.47;2.30;;;;;;;18.54;44.35;99699.31;4989199;28;20066;-72
2023/08/29 06:15:27;;;;;;;7.03;2.80;;;;;;;18.25;45.10;99701.41;4979520;28;20046;-68
2023/08/29 06:17:54;;;;;;;4.50;2.55;;;;;;;17.77;45.88;99683.13;4951921;28;20197;-70
2023/08/29 06:20:20;;;;;;;3.88;2.63;;;;;;;18.01;47.18;99714.66;4973101;28;20142;-71
2023/08/29 06:22:46;;;;;;;3.80;2.53;;;;;;;17.89;46.58;99698.41;4989600;28;20133;-70
2023/08/29 06:25:12;;;;;;;6.53;2.63;;;;;;;17.55;46.70;99694.53;4962281;28;20174;-71
2023/08/29 06:27:38;;;;;;;6.05;2.72;;;;;;;17.38;47.56;99716.22;4976237;28;20155;-71
2023/08/29 06:30:06;;;;;;;6.78;2.60;;;;;;;17.42;48.34;99709.91;4960641;28;20039;-72
2023/08/29 06:32:35;;;;;;;5.63;2.53;;;;;;;17.27;48.60;99714.00;4975127;28;20078;-73
2023/08/29 06:35:01;;;;;;;10.02;2.88;;;;;;;17.04;48.57;99691.22;4974638;28;20493;-73
2023/08/29 06:37:27;;;;;;;8.55;2.72;;;;;;;17.13;48.60;99722.41;4976192;28;20050;-72
2023/08/29 06:39:53;;;;;;;3.80;2.35;;;;;;;16.90;48.85;99698.69;4976645;28;20101;-75
2023/08/29 06:42:19;;;;;;;6.10;2.80;;;;;;;17.00;49.59;99710.63;4976280;28;20043;-80
2023/08/29 06:44:45;;;;;;;4.45;2.75;;;;;;;17.12;49.19;99725.94;4977417;28;20038;-73
2023/08/29 06:47:11;;;;;;;7.25;2.85;;;;;;;17.09;49.76;99728.72;4973993;28;20417;-76
2023/08/29 06:49:37;;;;;;;3.95;2.75;;;;;;;17.16;49.49;99734.59;4973756;28;20049;-73
2023/08/29 06:52:04;;;;;;;4.57;2.50;;;;;;;17.06;49.79;99734.06;4957195;28;20054;-76
2023/08/29 06:54:30;;;;;;;5.15;3.00;;;;;;;16.97;50.20;99737.03;4974160;28;20050;-70
2023/08/29 06:56:56;;;;;;;5.82;2.83;;;;;;;16.90;50.46;99738.13;4988817;28;20454;-70
2023/08/29 06:59:22;;;;;;;5.20;2.20;;;;;;;16.90;50.77;99717.09;4981686;28;20047;-73
2023/08/29 07:01:48;;;;;;;4.70;2.88;;;;;;;17.02;50.43;99745.59;4987587;28;20466;-76
2023/08/29 07:04:14;;;;;;;5.00;2.80;;;;;;;16.84;50.87;99708.53;4974139;28;20563;-70
2023/08/29 07:06:40;;;;;;;12.68;6.15;;;;;;;17.19;50.58;99738.88;4988229;28;20156;-68
2023/08/29 07:09:07;;;;;;;7.22;3.50;;;;;;;17.06;49.73;99739.34;4969194;28;20047;-77
2023/08/29 07:11:33;;;;;;;5.65;2.97;;;;;;;17.00;50.48;99753.53;4972336;28;20047;-74
2023/08/29 07:13:59;;;;;;;6.90;2.72;;;;;;;16.70;50.38;99716.91;4957660;28;20093;-80
2023/08/29 07:16:25;;;;;;;7.03;2.30;;;;;;;16.92;51.17;99750.31;4961699;28;20050;-82
2023/08/29 07:18:51;;;;;;;5.95;2.75;;;;;;;16.96;50.91;99745.81;4994389;28;20400;-81
2023/08/29 07:21:17;;;;;;;5.97;3.03;;;;;;;16.83;50.73;99732.22;4980150;28;20519;-84
2023/08/29 07:23:43;;;;;;;4.80;2.95;;;;;;;16.66;50.59;99698.69;4978790;28;20047;-72
2023/08/29 07:26:10;;;;;;;8.52;3.33;;;;;;;16.80;50.86;99721.81;4979248;28;20031;-74
2023/08/29 07:28:36;;;;;;;6.55;2.60;;;;;;;16.90;51.17;99731.09;4950710;28;20046;-69
2023/08/29 07:31:02;;;;;;;3.47;2.17;;;;;;;16.88;51.43;99721.56;4974631;28;20053;-70
2023/08/29 07:33:29;;;;;;;4.10;2.80;;;;;;;17.24;51.58;99739.56;4979628;28;20046;-71
2023/08/29 07:35:56;;;;;;;9.35;2.70;;;;;;;17.14;51.22;99700.44;4975309;28;20054;-69
2023/08/29 07:38:23;;;;;;;4.10;2.15;;;;;;;17.41;50.73;99747.66;4991756;28;20582;-70
2023/08/29 07:40:49;;;;;;;7.38;3.47;;;;;;;17.43;50.58;99745.00;4963761;28;20081;-69
2023/08/29 07:43:15;;;;;;;4.03;2.67;;;;;;;17.31;50.57;99734.00;4977471;28;20041;-69
2023/08/29 07:45:42;;;;;;;5.80;3.63;;;;;;;17.44;51.22;99738.78;4978922;28;20125;-68
2023/08/29 07:48:08;;;;;;;17.20;11.63;;;;;;;17.79;50.56;99735.69;4959411;28;20038;-69
2023/08/29 07:50:35;;;;;;;6.47;4.30;;;;;;;17.75;49.79;99724.44;4977495;28;20038;-75
2023/08/29 07:53:00;;;;;;;6.20;3.53;;;;;;;17.96;50.59;99733.25;4971578;28;20043;-73
2023/08/29 07:55:26;;;;;;;10.98;6.90;;;;;;;17.89;50.35;99727.38;4990267;28;20555;-79
2023/08/29 07:57:52;;;;;;;13.38;6.70;;;;;;;17.77;49.77;99730.50;4972833;28;21437;-72
2023/08/29 08:00:19;;;;;;;5.68;2.90;;;;;;;17.66;50.16;99712.50;4972954;28;20054;-72
2023/08/29 08:02:45;;;;;;;5.68;3.10;;;;;;;17.55;49.55;99710.31;4974251;28;20070;-73
2023/08/29 08:05:13;;;;;;;7.05;2.42;;;;;;;17.41;50.60;99733.66;4977241;28;20030;-75
2023/08/29 08:07:40;;;;;;;5.57;2.70;;;;;;;17.53;50.34;99738.44;4967415;28;20053;-73
2023/08/29 08:10:07;;;;;;;4.68;2.95;;;;;;;17.59;50.18;99737.34;4964801;28;20083;-72
2023/08/29 08:12:35;;;;;;;3.72;2.55;;;;;;;17.60;50.71;99731.16;4970817;28;20077;-71
2023/08/29 08:15:04;;;;;;;5.47;2.40;;;;;;;17.73;50.81;99734.16;4990893;28;20078;-71
2023/08/29 08:17:31;;;;;;;4.65;2.35;;;;;;;17.63;50.84;99727.56;4973286;28;20058;-71
2023/08/29 08:19:58;;;;;;;5.35;2.90;;;;;;;17.74;50.97;99734.13;4974954;28;20118;-72
2023/08/29 08:22:24;;;;;;;3.95;2.20;;;;;;;17.91;50.53;99753.66;4971909;28;20038;-72
2023/08/29 08:24:50;;;;;;;3.63;2.38;;;;;;;17.91;50.52;99743.13;4975638;28;20046;-71
2023/08/29 08:27:19;;;;;;;3.65;2.50;;;;;;;17.92;50.40;99748.31;4975644;28;20046;-70
2023/08/29 08:29:45;;;;;;;5.43;2.67;;;;;;;17.96;50.25;99743.78;4974043;28;20050;-71
2023/08/29 08:32:11;;;;;;;4.50;2.50;;;;;;;18.15;50.31;99737.81;4972918;28;20457;-72
2023/08/29 08:34:37;;;;;;;9.80;3.63;;;;;;;18.31;49.50;99736.22;4966408;28;20095;-70
2023/08/29 08:37:03;;;;;;;11.50;6.57;;;;;;;18.19;49.79;99719.16;4976532;28;20050;-72
2023/08/29 08:39:31;;;;;;;5.85;2.72;;;;;;;18.33;50.02;99738.78;4959145;28;20098;-69
2023/08/29 08:41:57;;;;;;;22.50;11.10;;;;;;;18.30;50.05;99729.25;4978154;28;20042;-70
2023/08/29 08:44:25;;;;;;;3.92;2.60;;;;;;;18.30;50.01;99716.09;4974251;28;20053;-68
2023/08/29 08:46:53;;;;;;;8.98;2.80;;;;;;;18.15;49.58;99685.97;4980234;28;20357;-71
2023/08/29 08:49:20;;;;;;;4.78;2.35;;;;;;;18.46;49.83;99729.47;4978433;28;20071;-71
2023/08/29 08:51:49;;;;;;;5.07;2.88;;;;;;;18.47;49.16;99741.72;4976324;28;20042;-69
2023/08/29 08:54:15;;;;;;;8.38;3.72;;;;;;;18.63;48.87;99741.03;4973935;28;20043;-78
2023/08/29 08:56:42;;;;;;;6.75;3.10;;;;;;;18.54;48.71;99742.31;4974469;28;20074;-75
2023/08/29 08:59:09;;;;;;;5.63;3.30;;;;;;;18.25;49.08;99725.09;4974840;28;20137;-80
2023/08/29 09:01:35;;;;;;;8.25;3.65;;;;;;;18.26;49.16;99719.75;4958146;28;20151;-78
2023/08/29 09:04:01;;;;;;;4.95;3.00;;;;;;;18.42;49.27;99735.78;4944705;28;20042;-73
2023/08/29 09:06:29;;;;;;;8.48;3.00;;;;;;;18.44;49.06;99726.03;4966333;28;20031;-73
2023/08/29 09:09:26;;;;;;;6.45;2.92;;;;;;;18.60;49.17;99728.88;4966627;28;20085;-72
2023/08/29 09:11:53;;;;;;;8.07;2.83;;;;;;;18.80;48.81;99722.72;4991496;28;20050;-71
2023/08/29 09:14:20;;;;;;;8.38;3.53;;;;;;;18.80;48.87;99687.59;4973347;28;20045;-70
2023/08/29 09:16:47;;;;;;;6.03;3.92;;;;;;;19.10;48.01;99742.53;4992818;28;20062;-74
2023/08/29 09:19:16;;;;;;;9.55;3.47;;;;;;;18.94;48.38;99714.19;4976988;28;20100;-72
2023/08/29 09:21:43;;;;;;;8.70;3.97;;;;;;;19.09;48.56;99725.00;4972605;28;20102;-69
2023/08/29 09:24:12;;;;;;;9.45;3.75;;;;;;;19.07;48.44;99721.59;4973394;28;20800;-72
2023/08/29 09:26:40;;;;;;;11.43;7.40;;;;;;;19.05;47.98;99731.34;4990389;28;20042;-69
2023/08/29 09:29:20;;;;;;;6.55;4.38;;;;;;;19.18;48.68;99729.84;4970828;28;20187;-68
2023/08/29 09:31:49;;;;;;;5.05;3.15;;;;;;;19.17;48.62;99730.78;4988787;28;20053;-70
2023/08/29 09:34:30;;;;;;;4.57;2.53;;;;;;;19.20;48.03;99732.44;4974822;28;20043;-69
2023/08/29 09:36:59;;;;;;;6.97;3.15;;;;;;;19.06;48.46;99720.72;4988196;28;20043;-70
2023/08/29 09:39:27;;;;;;;9.98;2.50;;;;;;;18.96;47.96;99724.72;4988224;28;20307;-69
2023/08/29 09:42:10;;;;;;;11.43;5.00;;;;;;;18.97;48.06;99729.06;4966021;28;20074;-70
2023/08/29 09:44:40;;;;;;;7.10;2.60;;;;;;;19.01;48.24;99732.41;4972471;28;20066;-74
2023/08/29 09:47:09;;;;;;;10.40;2.80;;;;;;;19.12;48.15;99738.03;4989468;28;20038;-71
2023/08/29 09:49:47;;;;;;;8.10;3.20;;;;;;;19.09;47.96;99722.34;4989758;28;20074;-75
2023/08/29 09:52:14;;;;;;;4.10;2.60;;;;;;;19.13;48.04;99717.81;4979792;28;20066;-77
2023/08/29 09:54:47;;;;;;;5.03;2.95;;;;;;;18.95;47.86;99681.66;4990087;28;20524;-81
2023/08/29 09:57:15;;;;;;;8.40;2.88;;;;;;;19.29;47.88;99713.53;4979979;28;20047;-76
2023/08/29 09:59:43;;;;;;;4.93;3.00;;;;;;;19.47;47.97;99732.94;4973351;28;20056;-73
2023/08/29 10:02:11;;;;;;;6.97;4.15;;;;;;;19.59;47.08;99723.59;4971095;28;20457;-76
2023/08/29 10:05:05;;;;;;;8.25;3.40;;;;;;;19.56;46.69;99724.56;4976348;28;20133;-73
2023/08/29 10:07:50;;;;;;;5.80;3.25;;;;;;;19.52;47.53;99694.00;4976008;28;20050;-78
2023/08/29 10:10:16;;;;;;;7.32;3.63;;;;;;;20.02;47.27;99708.34;4967996;28;20043;-73
2023/08/29 10:12:44;;;;;;;6.82;2.83;;;;;;;20.07;46.56;99678.19;4958976;28;20043;-77
2023/08/29 10:15:11;;;;;;;6.43;2.60;;;;;;;19.90;46.10;99621.78;4979540;28;20065;-76
2023/08/29 10:17:38;;;;;;;3.95;2.30;;;;;;;20.21;45.20;99681.00;4974615;28;20565;-71
2023/08/29 10:20:09;;;;;;;4.55;3.10;;;;;;;20.24;45.10;99706.38;4977215;28;20056;-73
2023/08/29 10:22:48;;;;;;;4.15;2.85;;;;;;;20.04;45.36;99691.56;4971557;28;20042;-80
2023/08/29 10:25:14;;;;;;;11.02;3.10;;;;;;;20.12;45.51;99713.13;4992765;28;20085;-75
2023/08/29 10:27:41;;;;;;;6.40;2.47;;;;;;;19.75;45.01;99668.25;4975229;28;20042;-76
2023/08/29 10:30:08;;;;;;;5.18;2.50;;;;;;;20.10;45.25;99726.44;4968112;28;20031;-73
2023/08/29 10:32:36;;;;;;;5.80;2.70;;;;;;;19.97;45.26;99717.41;4969492;28;20050;-72
2023/08/29 10:35:03;;;;;;;9.63;3.10;;;;;;;19.99;45.50;99711.13;4991972;28;20065;-72
2023/08/29 10:37:30;;;;;;;7.45;3.40;;;;;;;20.12;45.89;99718.41;4980628;28;20070;-76
2023/08/29 10:40:17;;;;;;;4.22;2.90;;;;;;;19.93;44.94;99721.13;4968939;28;20034;-75
2023/08/29 10:42:53;;;;;;;3.58;2.85;;;;;;;19.47;45.65;99724.16;4963745;28;20054;-69
2023/08/29 10:45:41;;;;;;;5.47;3.00;;;;;;;19.14;46.03;99680.81;4972062;28;20038;-71
2023/08/29 10:48:07;;;;;;;4.03;2.72;;;;;;;19.26;46.16;99713.69;4992718;28;20189;-72
2023/08/29 10:50:37;;;;;;;5.07;2.80;;;;;;;19.19;46.21;99725.47;4962435;28;20046;-74
2023/08/29 10:53:04;;;;;;;4.10;2.70;;;;;;;19.20;46.90;99733.28;4945348;28;20046;-72
2023/08/29 10:55:32;;;;;;;4.20;3.10;;;;;;;18.98;47.16;99675.38;4962268;28;20042;-71
2023/08/29 10:58:32;;;;;;;5.60;3.30;;;;;;;19.66;46.42;99729.41;4962135;28;20038;-71
2023/08/29 11:00:58;;;;;;;5.68;3.28;;;;;;;19.72;46.34;99721.22;4943999;28;20035;-72
2023/08/29 11:03:45;;;;;;;4.97;2.63;;;;;;;19.59;46.14;99704.25;4963419;28;20057;-71
2023/08/29 11:06:11;;;;;;;4.18;3.30;;;;;;;19.44;46.38;99692.63;4978877;28;20037;-72
2023/08/29 11:08:37;;;;;;;4.40;3.20;;;;;;;19.67;45.98;99715.31;4958109;28;20522;-74
2023/08/29 11:11:19;;;;;;;7.28;3.40;;;;;;;19.57;46.05;99738.63;4976029;28;20054;-75
2023/08/29 11:14:07;;;;;;;5.40;2.80;;;;;;;19.54;46.51;99744.91;4971464;28;20544;-75
2023/08/29 11:16:37;;;;;;;5.00;2.95;;;;;;;19.45;46.44;99745.34;4974199;28;20146;-76
2023/08/29 11:19:11;;;;;;;7.88;3.35;;;;;;;19.39;46.60;99748.25;4981586;28;20042;-75
2023/08/29 11:21:38;;;;;;;6.82;3.28;;;;;;;19.37;46.44;99731.66;4991856;28;20042;-73
2023/08/29 11:24:09;;;;;;;5.72;3.10;;;;;;;19.24;46.34;99721.66;4976370;28;20057;-72
2023/08/29 11:26:43;;;;;;;10.18;3.28;;;;;;;19.18;46.57;99732.50;4972752;28;20129;-76
2023/08/29 11:29:09;;;;;;;5.70;3.42;;;;;;;19.12;46.99;99711.66;4972129;28;20062;-73
2023/08/29 11:31:45;;;;;;;5.97;3.20;;;;;;;19.24;46.67;99703.22;4974233;28;20038;-70
2023/08/29 11:34:13;;;;;;;8.68;3.33;;;;;;;19.24;47.06;99704.97;4974817;28;20112;-74
2023/08/29 11:36:43;;;;;;;3.30;2.75;;;;;;;19.61;47.16;99713.81;4963381;28;20515;-77